sensor_id;sensor_type;location;lat;lon;timestamp;P1;durP1;ratioP1;P2;durP2;ratioP2
21480;SDS011;10902;48.158;8.634;2022-11-20T00:00:08;32.63;;;20.15;;
21480;SDS011;10902;48.158;8.634;2022-11-20T00:02:34;33.03;;;20.98;;
21480;SDS011;10902;48.158;8.634;2022-11-20T00:05:00;32.15;;;18.98;;
21480;SDS011;10902;48.158;8.634;2022-11-20T00:07:25;26.70;;;18.05;;
21480;SDS011;10902;48.158;8.634;2022-11-20T00:09:51;28.13;;;17.52;;
21480;SDS011;10902;48.158;8.634;2022-11-20T00:12:16;27.25;;;17.20;;
21480;SDS011;10902;48.158;8.634;2022-11-20T00:14:42;25.13;;;16.60;;
21480;SDS011;10902;48.158;8.634;2022-11-20T00:17:08;27.23;;;17.30;;
21480;SDS011;10902;48.158;8.634;2022-11-20T00:19:34;22.85;;;15.63;;
21480;SDS011;10902;48.158;8.634;2022-11-20T00:21:59;23.48;;;15.20;;
21480;SDS011;10902;48.158;8.634;2022-11-20T00:24:25;29.88;;;19.00;;
21480;SDS011;10902;48.158;8.634;2022-11-20T00:26:50;26.13;;;16.27;;
21480;SDS011;10902;48.158;8.634;2022-11-20T00:29:16;23.58;;;14.95;;
21480;SDS011;10902;48.158;8.634;2022-11-20T00:31:41;24.52;;;15.68;;
21480;SDS011;10902;48.158;8.634;2022-11-20T00:34:07;30.52;;;19.52;;
21480;SDS011;10902;48.158;8.634;2022-11-20T00:36:34;30.75;;;18.50;;
21480;SDS011;10902;48.158;8.634;2022-11-20T00:38:59;30.60;;;19.60;;
21480;SDS011;10902;48.158;8.634;2022-11-20T00:41:26;36.17;;;21.63;;
21480;SDS011;10902;48.158;8.634;2022-11-20T00:43:53;33.28;;;21.33;;
21480;SDS011;10902;48.158;8.634;2022-11-20T00:46:20;32.85;;;21.17;;
21480;SDS011;10902;48.158;8.634;2022-11-20T00:48:47;34.53;;;21.50;;
21480;SDS011;10902;48.158;8.634;2022-11-20T00:51:14;31.88;;;20.92;;
21480;SDS011;10902;48.158;8.634;2022-11-20T00:53:45;30.75;;;19.83;;
21480;SDS011;10902;48.158;8.634;2022-11-20T00:56:11;31.23;;;19.38;;
21480;SDS011;10902;48.158;8.634;2022-11-20T00:58:40;29.83;;;19.73;;
21480;SDS011;10902;48.158;8.634;2022-11-20T01:01:08;29.25;;;18.45;;
21480;SDS011;10902;48.158;8.634;2022-11-20T01:03:40;31.45;;;18.52;;
21480;SDS011;10902;48.158;8.634;2022-11-20T01:06:12;26.50;;;17.33;;
21480;SDS011;10902;48.158;8.634;2022-11-20T01:08:59;26.58;;;16.58;;
21480;SDS011;10902;48.158;8.634;2022-11-20T01:11:27;23.63;;;15.68;;
21480;SDS011;10902;48.158;8.634;2022-11-20T01:13:55;25.60;;;15.55;;
21480;SDS011;10902;48.158;8.634;2022-11-20T01:16:29;24.38;;;15.88;;
21480;SDS011;10902;48.158;8.634;2022-11-20T01:19:00;26.60;;;17.92;;
21480;SDS011;10902;48.158;8.634;2022-11-20T01:21:29;28.48;;;18.13;;
21480;SDS011;10902;48.158;8.634;2022-11-20T01:23:56;27.33;;;17.88;;
21480;SDS011;10902;48.158;8.634;2022-11-20T01:26:24;25.73;;;17.02;;
21480;SDS011;10902;48.158;8.634;2022-11-20T01:28:56;28.73;;;17.90;;
21480;SDS011;10902;48.158;8.634;2022-11-20T01:31:29;25.77;;;16.92;;
21480;SDS011;10902;48.158;8.634;2022-11-20T01:34:00;25.65;;;15.43;;
21480;SDS011;10902;48.158;8.634;2022-11-20T01:36:28;22.83;;;14.95;;
21480;SDS011;10902;48.158;8.634;2022-11-20T01:38:55;24.60;;;14.15;;
21480;SDS011;10902;48.158;8.634;2022-11-20T01:41:26;21.08;;;14.32;;
21480;SDS011;10902;48.158;8.634;2022-11-20T01:44:13;20.45;;;13.15;;
21480;SDS011;10902;48.158;8.634;2022-11-20T01:47:02;19.00;;;12.68;;
21480;SDS011;10902;48.158;8.634;2022-11-20T01:49:39;16.05;;;10.80;;
21480;SDS011;10902;48.158;8.634;2022-11-20T01:54:42;13.18;;;9.77;;
21480;SDS011;10902;48.158;8.634;2022-11-20T01:57:13;15.52;;;10.00;;
21480;SDS011;10902;48.158;8.634;2022-11-20T01:59:41;15.40;;;10.40;;
21480;SDS011;10902;48.158;8.634;2022-11-20T02:02:12;14.40;;;9.25;;
21480;SDS011;10902;48.158;8.634;2022-11-20T02:04:39;13.50;;;9.15;;
21480;SDS011;10902;48.158;8.634;2022-11-20T02:07:05;14.23;;;9.10;;
21480;SDS011;10902;48.158;8.634;2022-11-20T02:09:30;12.90;;;9.38;;
21480;SDS011;10902;48.158;8.634;2022-11-20T02:11:56;14.95;;;8.77;;
21480;SDS011;10902;48.158;8.634;2022-11-20T02:14:23;10.15;;;7.20;;
21480;SDS011;10902;48.158;8.634;2022-11-20T02:16:50;12.38;;;7.25;;
21480;SDS011;10902;48.158;8.634;2022-11-20T02:19:49;9.90;;;6.43;;
21480;SDS011;10902;48.158;8.634;2022-11-20T02:22:10;8.20;;;5.95;;
21480;SDS011;10902;48.158;8.634;2022-11-20T02:24:40;8.27;;;5.65;;
21480;SDS011;10902;48.158;8.634;2022-11-20T02:27:10;8.27;;;5.63;;
21480;SDS011;10902;48.158;8.634;2022-11-20T02:32:19;9.63;;;4.70;;
21480;SDS011;10902;48.158;8.634;2022-11-20T02:34:46;7.05;;;4.68;;
21480;SDS011;10902;48.158;8.634;2022-11-20T02:37:12;7.80;;;4.75;;
21480;SDS011;10902;48.158;8.634;2022-11-20T02:39:37;8.15;;;4.80;;
21480;SDS011;10902;48.158;8.634;2022-11-20T02:42:04;8.27;;;4.70;;
21480;SDS011;10902;48.158;8.634;2022-11-20T02:44:29;7.70;;;4.22;;
21480;SDS011;10902;48.158;8.634;2022-11-20T02:46:56;6.25;;;4.50;;
21480;SDS011;10902;48.158;8.634;2022-11-20T02:49:23;5.65;;;3.83;;
21480;SDS011;10902;48.158;8.634;2022-11-20T02:51:49;5.88;;;4.05;;
21480;SDS011;10902;48.158;8.634;2022-11-20T02:54:15;6.53;;;4.38;;
21480;SDS011;10902;48.158;8.634;2022-11-20T02:56:40;6.30;;;4.10;;
21480;SDS011;10902;48.158;8.634;2022-11-20T02:59:06;6.15;;;4.07;;
21480;SDS011;10902;48.158;8.634;2022-11-20T03:01:32;6.25;;;3.70;;
21480;SDS011;10902;48.158;8.634;2022-11-20T03:03:58;5.63;;;3.47;;
21480;SDS011;10902;48.158;8.634;2022-11-20T03:06:23;5.70;;;3.50;;
21480;SDS011;10902;48.158;8.634;2022-11-20T03:08:49;7.50;;;3.78;;
21480;SDS011;10902;48.158;8.634;2022-11-20T03:11:15;6.50;;;3.92;;
21480;SDS011;10902;48.158;8.634;2022-11-20T03:13:40;7.60;;;3.63;;
21480;SDS011;10902;48.158;8.634;2022-11-20T03:16:10;7.05;;;4.47;;
21480;SDS011;10902;48.158;8.634;2022-11-20T03:18:38;6.97;;;4.78;;
21480;SDS011;10902;48.158;8.634;2022-11-20T03:21:04;6.47;;;4.47;;
21480;SDS011;10902;48.158;8.634;2022-11-20T03:23:31;8.25;;;4.75;;
21480;SDS011;10902;48.158;8.634;2022-11-20T03:28:47;7.70;;;4.90;;
21480;SDS011;10902;48.158;8.634;2022-11-20T03:31:18;8.30;;;5.68;;
21480;SDS011;10902;48.158;8.634;2022-11-20T03:33:46;7.70;;;5.07;;
21480;SDS011;10902;48.158;8.634;2022-11-20T03:36:12;8.85;;;4.75;;
21480;SDS011;10902;48.158;8.634;2022-11-20T03:38:40;9.13;;;5.03;;
21480;SDS011;10902;48.158;8.634;2022-11-20T03:41:16;8.75;;;5.13;;
21480;SDS011;10902;48.158;8.634;2022-11-20T03:43:47;7.03;;;5.00;;
21480;SDS011;10902;48.158;8.634;2022-11-20T03:46:20;8.07;;;5.38;;
21480;SDS011;10902;48.158;8.634;2022-11-20T03:48:47;8.77;;;5.20;;
21480;SDS011;10902;48.158;8.634;2022-11-20T03:51:23;8.73;;;5.22;;
21480;SDS011;10902;48.158;8.634;2022-11-20T03:53:50;9.02;;;5.82;;
21480;SDS011;10902;48.158;8.634;2022-11-20T03:56:18;10.02;;;5.78;;
21480;SDS011;10902;48.158;8.634;2022-11-20T03:58:45;9.60;;;6.07;;
21480;SDS011;10902;48.158;8.634;2022-11-20T04:01:12;10.07;;;6.15;;
21480;SDS011;10902;48.158;8.634;2022-11-20T04:03:42;9.32;;;6.00;;
21480;SDS011;10902;48.158;8.634;2022-11-20T04:06:09;9.45;;;6.10;;
21480;SDS011;10902;48.158;8.634;2022-11-20T04:08:35;10.82;;;5.82;;
21480;SDS011;10902;48.158;8.634;2022-11-20T04:11:08;9.18;;;5.78;;
21480;SDS011;10902;48.158;8.634;2022-11-20T04:13:33;9.18;;;5.85;;
21480;SDS011;10902;48.158;8.634;2022-11-20T04:15:59;10.15;;;6.15;;
21480;SDS011;10902;48.158;8.634;2022-11-20T04:18:25;9.57;;;5.93;;
21480;SDS011;10902;48.158;8.634;2022-11-20T04:20:50;9.95;;;6.38;;
21480;SDS011;10902;48.158;8.634;2022-11-20T04:23:16;8.20;;;5.47;;
21480;SDS011;10902;48.158;8.634;2022-11-20T04:25:41;10.05;;;6.05;;
21480;SDS011;10902;48.158;8.634;2022-11-20T04:28:07;10.93;;;6.50;;
21480;SDS011;10902;48.158;8.634;2022-11-20T04:30:32;10.15;;;5.68;;
21480;SDS011;10902;48.158;8.634;2022-11-20T04:32:58;9.30;;;5.63;;
21480;SDS011;10902;48.158;8.634;2022-11-20T04:35:23;10.13;;;6.45;;
21480;SDS011;10902;48.158;8.634;2022-11-20T04:37:51;8.98;;;5.57;;
21480;SDS011;10902;48.158;8.634;2022-11-20T04:40:17;9.85;;;6.22;;
21480;SDS011;10902;48.158;8.634;2022-11-20T04:42:42;9.75;;;5.75;;
21480;SDS011;10902;48.158;8.634;2022-11-20T04:45:08;7.65;;;5.25;;
21480;SDS011;10902;48.158;8.634;2022-11-20T04:47:33;8.23;;;4.97;;
21480;SDS011;10902;48.158;8.634;2022-11-20T04:49:59;7.57;;;5.00;;
21480;SDS011;10902;48.158;8.634;2022-11-20T04:52:24;7.60;;;5.05;;
21480;SDS011;10902;48.158;8.634;2022-11-20T04:54:50;8.02;;;5.22;;
21480;SDS011;10902;48.158;8.634;2022-11-20T04:57:17;8.07;;;5.10;;
21480;SDS011;10902;48.158;8.634;2022-11-20T04:59:44;8.32;;;5.43;;
21480;SDS011;10902;48.158;8.634;2022-11-20T05:02:09;8.68;;;4.80;;
21480;SDS011;10902;48.158;8.634;2022-11-20T05:04:35;8.82;;;5.10;;
21480;SDS011;10902;48.158;8.634;2022-11-20T05:07:01;7.10;;;4.40;;
21480;SDS011;10902;48.158;8.634;2022-11-20T05:09:26;8.68;;;4.30;;
21480;SDS011;10902;48.158;8.634;2022-11-20T05:11:52;7.40;;;4.50;;
21480;SDS011;10902;48.158;8.634;2022-11-20T05:14:18;6.15;;;4.13;;
21480;SDS011;10902;48.158;8.634;2022-11-20T05:16:43;5.80;;;3.75;;
21480;SDS011;10902;48.158;8.634;2022-11-20T05:19:09;7.88;;;4.88;;
21480;SDS011;10902;48.158;8.634;2022-11-20T05:21:34;6.97;;;4.40;;
21480;SDS011;10902;48.158;8.634;2022-11-20T05:24:00;7.07;;;4.15;;
21480;SDS011;10902;48.158;8.634;2022-11-20T05:26:25;6.78;;;3.85;;
21480;SDS011;10902;48.158;8.634;2022-11-20T05:28:51;6.22;;;3.80;;
21480;SDS011;10902;48.158;8.634;2022-11-20T05:31:18;7.60;;;4.15;;
21480;SDS011;10902;48.158;8.634;2022-11-20T05:33:46;7.03;;;3.75;;
21480;SDS011;10902;48.158;8.634;2022-11-20T05:36:12;5.70;;;3.22;;
21480;SDS011;10902;48.158;8.634;2022-11-20T05:38:39;8.10;;;4.60;;
21480;SDS011;10902;48.158;8.634;2022-11-20T05:41:06;6.95;;;4.65;;
21480;SDS011;10902;48.158;8.634;2022-11-20T05:43:41;8.25;;;5.07;;
21480;SDS011;10902;48.158;8.634;2022-11-20T05:46:08;6.05;;;3.90;;
21480;SDS011;10902;48.158;8.634;2022-11-20T05:48:36;8.25;;;5.53;;
21480;SDS011;10902;48.158;8.634;2022-11-20T05:51:03;7.95;;;4.47;;
21480;SDS011;10902;48.158;8.634;2022-11-20T05:53:31;8.57;;;4.53;;
21480;SDS011;10902;48.158;8.634;2022-11-20T05:55:59;8.02;;;5.10;;
21480;SDS011;10902;48.158;8.634;2022-11-20T05:58:26;7.82;;;5.18;;
21480;SDS011;10902;48.158;8.634;2022-11-20T06:00:52;8.77;;;4.70;;
21480;SDS011;10902;48.158;8.634;2022-11-20T06:03:18;8.70;;;4.57;;
21480;SDS011;10902;48.158;8.634;2022-11-20T06:05:43;8.98;;;4.80;;
21480;SDS011;10902;48.158;8.634;2022-11-20T06:08:09;8.60;;;4.50;;
21480;SDS011;10902;48.158;8.634;2022-11-20T06:10:35;8.80;;;4.38;;
21480;SDS011;10902;48.158;8.634;2022-11-20T06:13:00;7.90;;;5.07;;
21480;SDS011;10902;48.158;8.634;2022-11-20T06:15:26;9.00;;;5.30;;
21480;SDS011;10902;48.158;8.634;2022-11-20T06:17:54;11.27;;;5.80;;
21480;SDS011;10902;48.158;8.634;2022-11-20T06:20:21;9.70;;;6.15;;
21480;SDS011;10902;48.158;8.634;2022-11-20T06:22:46;9.80;;;5.55;;
21480;SDS011;10902;48.158;8.634;2022-11-20T06:25:12;9.25;;;5.60;;
21480;SDS011;10902;48.158;8.634;2022-11-20T06:27:38;9.73;;;5.30;;
21480;SDS011;10902;48.158;8.634;2022-11-20T06:30:04;8.85;;;5.63;;
21480;SDS011;10902;48.158;8.634;2022-11-20T06:32:30;9.00;;;4.75;;
21480;SDS011;10902;48.158;8.634;2022-11-20T06:34:56;9.60;;;5.65;;
21480;SDS011;10902;48.158;8.634;2022-11-20T06:37:21;8.90;;;5.00;;
21480;SDS011;10902;48.158;8.634;2022-11-20T06:39:47;7.13;;;4.68;;
21480;SDS011;10902;48.158;8.634;2022-11-20T06:42:12;8.68;;;5.63;;
21480;SDS011;10902;48.158;8.634;2022-11-20T06:44:38;9.45;;;5.40;;
21480;SDS011;10902;48.158;8.634;2022-11-20T06:47:03;9.15;;;5.97;;
21480;SDS011;10902;48.158;8.634;2022-11-20T06:49:29;7.95;;;5.55;;
21480;SDS011;10902;48.158;8.634;2022-11-20T06:51:55;9.70;;;5.78;;
21480;SDS011;10902;48.158;8.634;2022-11-20T06:54:20;10.00;;;5.95;;
21480;SDS011;10902;48.158;8.634;2022-11-20T06:56:46;11.85;;;6.30;;
21480;SDS011;10902;48.158;8.634;2022-11-20T06:59:12;13.38;;;7.13;;
21480;SDS011;10902;48.158;8.634;2022-11-20T07:01:38;10.07;;;6.68;;
21480;SDS011;10902;48.158;8.634;2022-11-20T07:04:04;10.73;;;7.05;;
21480;SDS011;10902;48.158;8.634;2022-11-20T07:06:29;10.65;;;6.63;;
21480;SDS011;10902;48.158;8.634;2022-11-20T07:08:55;12.68;;;7.20;;
21480;SDS011;10902;48.158;8.634;2022-11-20T07:11:21;11.25;;;7.45;;
21480;SDS011;10902;48.158;8.634;2022-11-20T07:13:46;13.43;;;8.10;;
21480;SDS011;10902;48.158;8.634;2022-11-20T07:16:12;13.00;;;7.75;;
21480;SDS011;10902;48.158;8.634;2022-11-20T07:18:38;12.57;;;8.40;;
21480;SDS011;10902;48.158;8.634;2022-11-20T07:21:07;12.60;;;8.43;;
21480;SDS011;10902;48.158;8.634;2022-11-20T07:23:34;17.70;;;10.55;;
21480;SDS011;10902;48.158;8.634;2022-11-20T07:26:04;13.15;;;8.60;;
21480;SDS011;10902;48.158;8.634;2022-11-20T07:28:31;12.60;;;8.40;;
21480;SDS011;10902;48.158;8.634;2022-11-20T07:30:57;14.18;;;8.65;;
21480;SDS011;10902;48.158;8.634;2022-11-20T07:33:22;12.32;;;7.82;;
21480;SDS011;10902;48.158;8.634;2022-11-20T07:35:48;12.63;;;8.23;;
21480;SDS011;10902;48.158;8.634;2022-11-20T07:38:13;13.55;;;7.28;;
21480;SDS011;10902;48.158;8.634;2022-11-20T07:40:39;9.10;;;6.03;;
21480;SDS011;10902;48.158;8.634;2022-11-20T07:43:04;10.27;;;6.82;;
21480;SDS011;10902;48.158;8.634;2022-11-20T07:45:30;8.23;;;5.50;;
21480;SDS011;10902;48.158;8.634;2022-11-20T07:47:55;8.85;;;5.60;;
21480;SDS011;10902;48.158;8.634;2022-11-20T07:50:21;7.75;;;5.15;;
21480;SDS011;10902;48.158;8.634;2022-11-20T07:52:47;8.02;;;5.10;;
21480;SDS011;10902;48.158;8.634;2022-11-20T07:55:12;8.48;;;5.38;;
21480;SDS011;10902;48.158;8.634;2022-11-20T07:57:38;8.88;;;5.80;;
21480;SDS011;10902;48.158;8.634;2022-11-20T08:00:05;7.93;;;5.13;;
21480;SDS011;10902;48.158;8.634;2022-11-20T08:02:33;7.80;;;4.55;;
21480;SDS011;10902;48.158;8.634;2022-11-20T08:05:01;6.72;;;4.28;;
21480;SDS011;10902;48.158;8.634;2022-11-20T08:07:27;6.85;;;4.45;;
21480;SDS011;10902;48.158;8.634;2022-11-20T08:09:52;7.47;;;4.85;;
21480;SDS011;10902;48.158;8.634;2022-11-20T08:12:19;7.22;;;5.10;;
21480;SDS011;10902;48.158;8.634;2022-11-20T08:15:04;7.10;;;4.65;;
21480;SDS011;10902;48.158;8.634;2022-11-20T08:17:31;7.13;;;4.38;;
21480;SDS011;10902;48.158;8.634;2022-11-20T08:19:56;7.43;;;5.03;;
21480;SDS011;10902;48.158;8.634;2022-11-20T08:22:22;7.97;;;5.18;;
21480;SDS011;10902;48.158;8.634;2022-11-20T08:24:47;7.72;;;5.00;;
21480;SDS011;10902;48.158;8.634;2022-11-20T08:27:13;7.50;;;4.97;;
21480;SDS011;10902;48.158;8.634;2022-11-20T08:29:39;7.35;;;4.70;;
21480;SDS011;10902;48.158;8.634;2022-11-20T08:32:04;7.63;;;4.80;;
21480;SDS011;10902;48.158;8.634;2022-11-20T08:34:30;7.18;;;4.47;;
21480;SDS011;10902;48.158;8.634;2022-11-20T08:36:55;7.10;;;4.53;;
21480;SDS011;10902;48.158;8.634;2022-11-20T08:39:21;7.05;;;4.53;;
21480;SDS011;10902;48.158;8.634;2022-11-20T08:41:47;8.63;;;5.43;;
21480;SDS011;10902;48.158;8.634;2022-11-20T08:44:12;6.00;;;3.97;;
21480;SDS011;10902;48.158;8.634;2022-11-20T08:46:39;5.32;;;3.67;;
21480;SDS011;10902;48.158;8.634;2022-11-20T08:49:10;5.15;;;3.20;;
21480;SDS011;10902;48.158;8.634;2022-11-20T08:51:37;4.88;;;3.35;;
21480;SDS011;10902;48.158;8.634;2022-11-20T08:54:05;6.18;;;3.55;;
21480;SDS011;10902;48.158;8.634;2022-11-20T08:56:31;5.60;;;3.40;;
21480;SDS011;10902;48.158;8.634;2022-11-20T08:58:57;5.90;;;3.42;;
21480;SDS011;10902;48.158;8.634;2022-11-20T09:01:26;4.93;;;2.80;;
21480;SDS011;10902;48.158;8.634;2022-11-20T09:03:56;4.72;;;3.08;;
21480;SDS011;10902;48.158;8.634;2022-11-20T09:06:22;4.22;;;2.55;;
21480;SDS011;10902;48.158;8.634;2022-11-20T09:08:51;4.53;;;2.53;;
21480;SDS011;10902;48.158;8.634;2022-11-20T09:11:20;5.75;;;2.70;;
21480;SDS011;10902;48.158;8.634;2022-11-20T09:13:46;4.82;;;2.90;;
21480;SDS011;10902;48.158;8.634;2022-11-20T09:16:11;4.13;;;2.17;;
21480;SDS011;10902;48.158;8.634;2022-11-20T09:18:37;4.65;;;2.53;;
21480;SDS011;10902;48.158;8.634;2022-11-20T09:21:10;3.95;;;2.28;;
21480;SDS011;10902;48.158;8.634;2022-11-20T09:23:39;4.90;;;2.20;;
21480;SDS011;10902;48.158;8.634;2022-11-20T09:26:12;4.03;;;2.22;;
21480;SDS011;10902;48.158;8.634;2022-11-20T09:28:38;4.43;;;2.63;;
21480;SDS011;10902;48.158;8.634;2022-11-20T09:31:05;6.18;;;2.92;;
21480;SDS011;10902;48.158;8.634;2022-11-20T09:33:38;4.40;;;2.63;;
21480;SDS011;10902;48.158;8.634;2022-11-20T09:36:04;5.30;;;3.00;;
21480;SDS011;10902;48.158;8.634;2022-11-20T09:38:30;4.18;;;2.20;;
21480;SDS011;10902;48.158;8.634;2022-11-20T09:40:57;5.57;;;2.50;;
21480;SDS011;10902;48.158;8.634;2022-11-20T09:46:14;4.70;;;2.58;;
21480;SDS011;10902;48.158;8.634;2022-11-20T09:48:53;4.35;;;2.47;;
21480;SDS011;10902;48.158;8.634;2022-11-20T09:54:22;4.35;;;2.20;;
21480;SDS011;10902;48.158;8.634;2022-11-20T09:56:55;3.72;;;1.70;;
21480;SDS011;10902;48.158;8.634;2022-11-20T10:04:51;3.22;;;1.58;;
21480;SDS011;10902;48.158;8.634;2022-11-20T10:07:30;3.25;;;1.48;;
21480;SDS011;10902;48.158;8.634;2022-11-20T10:10:13;2.85;;;1.20;;
21480;SDS011;10902;48.158;8.634;2022-11-20T10:15:50;3.28;;;1.05;;
21480;SDS011;10902;48.158;8.634;2022-11-20T10:26:54;3.22;;;1.45;;
21480;SDS011;10902;48.158;8.634;2022-11-20T10:29:34;2.70;;;1.10;;
21480;SDS011;10902;48.158;8.634;2022-11-20T10:32:02;2.75;;;1.25;;
21480;SDS011;10902;48.158;8.634;2022-11-20T10:37:26;3.92;;;1.20;;
21480;SDS011;10902;48.158;8.634;2022-11-20T10:42:44;2.90;;;1.08;;
21480;SDS011;10902;48.158;8.634;2022-11-20T10:47:49;2.85;;;1.30;;
21480;SDS011;10902;48.158;8.634;2022-11-20T10:50:18;3.30;;;0.90;;
21480;SDS011;10902;48.158;8.634;2022-11-20T11:00:32;3.30;;;0.88;;
21480;SDS011;10902;48.158;8.634;2022-11-20T11:02:58;2.55;;;0.98;;
21480;SDS011;10902;48.158;8.634;2022-11-20T11:08:32;2.70;;;0.85;;
21480;SDS011;10902;48.158;8.634;2022-11-20T11:14:12;2.35;;;1.02;;
21480;SDS011;10902;48.158;8.634;2022-11-20T11:16:49;2.90;;;0.98;;
21480;SDS011;10902;48.158;8.634;2022-11-20T11:19:24;3.13;;;1.13;;
21480;SDS011;10902;48.158;8.634;2022-11-20T11:21:56;6.03;;;1.52;;
21480;SDS011;10902;48.158;8.634;2022-11-20T11:26:58;5.07;;;1.50;;
21480;SDS011;10902;48.158;8.634;2022-11-20T11:29:24;5.35;;;1.35;;
21480;SDS011;10902;48.158;8.634;2022-11-20T11:32:07;5.82;;;1.80;;
21480;SDS011;10902;48.158;8.634;2022-11-20T11:35:03;4.22;;;1.42;;
21480;SDS011;10902;48.158;8.634;2022-11-20T11:37:35;4.00;;;1.38;;
21480;SDS011;10902;48.158;8.634;2022-11-20T11:40:05;4.05;;;1.80;;
21480;SDS011;10902;48.158;8.634;2022-11-20T11:42:34;4.68;;;1.70;;
21480;SDS011;10902;48.158;8.634;2022-11-20T11:45:05;3.95;;;1.65;;
21480;SDS011;10902;48.158;8.634;2022-11-20T11:47:32;4.07;;;1.50;;
21480;SDS011;10902;48.158;8.634;2022-11-20T11:50:23;3.22;;;1.50;;
21480;SDS011;10902;48.158;8.634;2022-11-20T11:52:54;4.55;;;1.90;;
21480;SDS011;10902;48.158;8.634;2022-11-20T11:58:32;3.40;;;1.30;;
21480;SDS011;10902;48.158;8.634;2022-11-20T12:04:04;3.78;;;1.55;;
21480;SDS011;10902;48.158;8.634;2022-11-20T12:06:51;3.20;;;1.40;;
21480;SDS011;10902;48.158;8.634;2022-11-20T12:09:24;3.97;;;1.48;;
21480;SDS011;10902;48.158;8.634;2022-11-20T12:12:06;2.88;;;1.00;;
21480;SDS011;10902;48.158;8.634;2022-11-20T12:14:38;4.32;;;1.40;;
21480;SDS011;10902;48.158;8.634;2022-11-20T12:17:10;3.78;;;1.50;;
21480;SDS011;10902;48.158;8.634;2022-11-20T12:19:37;3.50;;;1.40;;
21480;SDS011;10902;48.158;8.634;2022-11-20T12:22:14;3.65;;;1.15;;
21480;SDS011;10902;48.158;8.634;2022-11-20T12:24:52;3.00;;;0.90;;
21480;SDS011;10902;48.158;8.634;2022-11-20T12:30:22;3.75;;;1.27;;
21480;SDS011;10902;48.158;8.634;2022-11-20T13:04:16;3.72;;;1.00;;
21480;SDS011;10902;48.158;8.634;2022-11-20T13:07:03;2.33;;;0.73;;
21480;SDS011;10902;48.158;8.634;2022-11-20T13:09:35;2.83;;;0.80;;
21480;SDS011;10902;48.158;8.634;2022-11-20T13:12:10;3.75;;;1.17;;
21480;SDS011;10902;48.158;8.634;2022-11-20T13:17:54;2.20;;;0.90;;
21480;SDS011;10902;48.158;8.634;2022-11-20T13:20:26;4.30;;;1.10;;
21480;SDS011;10902;48.158;8.634;2022-11-20T13:22:53;2.67;;;1.00;;
21480;SDS011;10902;48.158;8.634;2022-11-20T13:27:50;2.40;;;0.90;;
21480;SDS011;10902;48.158;8.634;2022-11-20T13:30:20;4.65;;;1.02;;
21480;SDS011;10902;48.158;8.634;2022-11-20T13:32:48;1.92;;;0.65;;
21480;SDS011;10902;48.158;8.634;2022-11-20T13:35:30;1.90;;;0.70;;
21480;SDS011;10902;48.158;8.634;2022-11-20T13:38:05;2.97;;;0.80;;
21480;SDS011;10902;48.158;8.634;2022-11-20T13:40:34;3.25;;;0.70;;
21480;SDS011;10902;48.158;8.634;2022-11-20T13:45:40;3.40;;;1.08;;
21480;SDS011;10902;48.158;8.634;2022-11-20T13:48:22;3.65;;;0.95;;
21480;SDS011;10902;48.158;8.634;2022-11-20T13:53:56;2.30;;;0.93;;
21480;SDS011;10902;48.158;8.634;2022-11-20T13:56:43;2.60;;;0.88;;
21480;SDS011;10902;48.158;8.634;2022-11-20T13:59:35;2.58;;;0.95;;
21480;SDS011;10902;48.158;8.634;2022-11-20T14:02:25;3.05;;;1.10;;
21480;SDS011;10902;48.158;8.634;2022-11-20T14:04:53;2.78;;;1.02;;
21480;SDS011;10902;48.158;8.634;2022-11-20T14:07:23;2.05;;;0.77;;
21480;SDS011;10902;48.158;8.634;2022-11-20T14:09:57;3.30;;;0.80;;
21480;SDS011;10902;48.158;8.634;2022-11-20T14:12:29;2.85;;;1.00;;
21480;SDS011;10902;48.158;8.634;2022-11-20T14:14:56;3.40;;;1.13;;
21480;SDS011;10902;48.158;8.634;2022-11-20T14:17:33;3.83;;;0.90;;
21480;SDS011;10902;48.158;8.634;2022-11-20T14:20:04;3.20;;;0.90;;
21480;SDS011;10902;48.158;8.634;2022-11-20T14:22:32;2.45;;;1.00;;
21480;SDS011;10902;48.158;8.634;2022-11-20T14:27:43;2.55;;;0.85;;
21480;SDS011;10902;48.158;8.634;2022-11-20T14:30:16;5.07;;;1.08;;
21480;SDS011;10902;48.158;8.634;2022-11-20T14:32:44;4.10;;;1.05;;
21480;SDS011;10902;48.158;8.634;2022-11-20T14:35:30;3.80;;;1.25;;
21480;SDS011;10902;48.158;8.634;2022-11-20T14:38:00;3.05;;;1.02;;
21480;SDS011;10902;48.158;8.634;2022-11-20T14:40:31;3.05;;;1.25;;
21480;SDS011;10902;48.158;8.634;2022-11-20T14:43:00;3.45;;;1.23;;
21480;SDS011;10902;48.158;8.634;2022-11-20T14:45:26;3.85;;;1.20;;
21480;SDS011;10902;48.158;8.634;2022-11-20T14:47:53;3.47;;;1.00;;
21480;SDS011;10902;48.158;8.634;2022-11-20T14:50:22;2.72;;;1.08;;
21480;SDS011;10902;48.158;8.634;2022-11-20T14:52:54;3.30;;;0.80;;
21480;SDS011;10902;48.158;8.634;2022-11-20T14:55:25;2.63;;;0.95;;
21480;SDS011;10902;48.158;8.634;2022-11-20T14:57:56;2.83;;;0.95;;
21480;SDS011;10902;48.158;8.634;2022-11-20T15:00:24;2.42;;;0.88;;
21480;SDS011;10902;48.158;8.634;2022-11-20T15:02:50;3.70;;;0.93;;
21480;SDS011;10902;48.158;8.634;2022-11-20T15:05:18;3.58;;;0.93;;
21480;SDS011;10902;48.158;8.634;2022-11-20T15:07:50;4.35;;;1.25;;
21480;SDS011;10902;48.158;8.634;2022-11-20T15:10:24;3.08;;;0.85;;
21480;SDS011;10902;48.158;8.634;2022-11-20T15:12:52;3.05;;;1.13;;
21480;SDS011;10902;48.158;8.634;2022-11-20T15:15:21;2.45;;;0.88;;
21480;SDS011;10902;48.158;8.634;2022-11-20T15:17:57;2.80;;;0.90;;
21480;SDS011;10902;48.158;8.634;2022-11-20T15:20:24;3.35;;;0.98;;
21480;SDS011;10902;48.158;8.634;2022-11-20T15:22:52;9.27;;;1.52;;
21480;SDS011;10902;48.158;8.634;2022-11-20T15:25:18;4.10;;;1.10;;
21480;SDS011;10902;48.158;8.634;2022-11-20T15:27:44;3.38;;;1.25;;
21480;SDS011;10902;48.158;8.634;2022-11-20T15:30:14;3.30;;;1.00;;
21480;SDS011;10902;48.158;8.634;2022-11-20T15:32:43;4.40;;;1.20;;
21480;SDS011;10902;48.158;8.634;2022-11-20T15:35:09;2.83;;;1.20;;
21480;SDS011;10902;48.158;8.634;2022-11-20T15:37:36;3.78;;;1.60;;
21480;SDS011;10902;48.158;8.634;2022-11-20T15:40:03;5.25;;;2.22;;
21480;SDS011;10902;48.158;8.634;2022-11-20T15:42:31;5.07;;;2.00;;
21480;SDS011;10902;48.158;8.634;2022-11-20T15:44:56;4.70;;;1.98;;
21480;SDS011;10902;48.158;8.634;2022-11-20T15:47:24;4.78;;;2.63;;
21480;SDS011;10902;48.158;8.634;2022-11-20T15:49:53;5.65;;;2.30;;
21480;SDS011;10902;48.158;8.634;2022-11-20T15:52:18;4.85;;;1.77;;
21480;SDS011;10902;48.158;8.634;2022-11-20T15:54:44;4.88;;;2.30;;
21480;SDS011;10902;48.158;8.634;2022-11-20T15:57:10;5.57;;;2.80;;
21480;SDS011;10902;48.158;8.634;2022-11-20T15:59:35;4.28;;;2.17;;
21480;SDS011;10902;48.158;8.634;2022-11-20T16:02:11;4.80;;;2.58;;
21480;SDS011;10902;48.158;8.634;2022-11-20T16:04:38;5.60;;;2.20;;
21480;SDS011;10902;48.158;8.634;2022-11-20T16:07:04;3.60;;;1.60;;
21480;SDS011;10902;48.158;8.634;2022-11-20T16:09:29;5.35;;;2.03;;
21480;SDS011;10902;48.158;8.634;2022-11-20T16:11:55;4.35;;;1.77;;
21480;SDS011;10902;48.158;8.634;2022-11-20T16:14:23;4.10;;;1.15;;
21480;SDS011;10902;48.158;8.634;2022-11-20T16:17:07;3.00;;;1.20;;
21480;SDS011;10902;48.158;8.634;2022-11-20T16:19:34;5.57;;;1.70;;
21480;SDS011;10902;48.158;8.634;2022-11-20T16:22:00;4.60;;;2.58;;
21480;SDS011;10902;48.158;8.634;2022-11-20T16:24:28;5.60;;;2.38;;
21480;SDS011;10902;48.158;8.634;2022-11-20T16:26:56;5.07;;;1.85;;
21480;SDS011;10902;48.158;8.634;2022-11-20T16:29:23;4.55;;;2.00;;
21480;SDS011;10902;48.158;8.634;2022-11-20T16:31:49;3.65;;;1.63;;
21480;SDS011;10902;48.158;8.634;2022-11-20T16:34:15;4.57;;;2.45;;
21480;SDS011;10902;48.158;8.634;2022-11-20T16:36:42;4.90;;;2.80;;
21480;SDS011;10902;48.158;8.634;2022-11-20T16:39:09;6.10;;;2.88;;
21480;SDS011;10902;48.158;8.634;2022-11-20T16:41:36;3.80;;;1.90;;